Time;durP1;ratioP1;P1;durP2;ratioP2;P2;SDS_P1;SDS_P2;PMS_P1;PMS_P2;Temp;Humidity;BMP_temperature;BMP_pressure;BME280_temperature;BME280_humidity;BME280_pressure;Samples;Min_cycle;Max_cycle;Signal;HPM_P1;HPM_P2
2022/04/11 00:00:28;;;;;;;0.20;0.20;;;1.20;99.90;;;;;;5060666;28;20094;-84
2022/04/11 00:02:55;;;;;;;0.25;0.25;;;1.20;99.90;;;;;;5077482;28;20040;-82
2022/04/11 00:05:22;;;;;;;0.20;0.20;;;1.20;99.90;;;;;;5060462;28;20047;-83
2022/04/11 00:07:49;;;;;;;0.20;0.20;;;1.20;99.90;;;;;;5077591;28;20393;-83
2022/04/11 00:10:16;;;;;;;0.20;0.20;;;1.80;99.90;;;;;;5060882;28;20092;-83
2022/04/11 00:12:43;;;;;;;0.20;0.20;;;1.20;99.90;;;;;;5077072;28;20044;-83
2022/04/11 00:15:10;;;;;;;0.20;0.20;;;1.90;99.90;;;;;;5077257;28;20417;-84
2022/04/11 00:17:37;;;;;;;0.20;0.20;;;1.20;99.90;;;;;;5093337;28;20040;-83
2022/04/11 00:20:05;;;;;;;0.20;0.20;;;1.20;99.90;;;;;;5110020;28;20039;-83
2022/04/11 00:22:36;;;;;;;0.20;0.20;;;1.10;99.90;;;;;;5076726;28;20043;-84
2022/04/11 00:25:04;;;;;;;0.30;0.30;;;1.10;99.90;;;;;;5094156;28;20097;-82
2022/04/11 00:27:31;;;;;;;0.20;0.20;;;1.10;99.90;;;;;;5109933;28;20138;-83
2022/04/11 00:29:57;;;;;;;0.22;0.22;;;1.10;99.90;;;;;;5076689;28;20048;-80
2022/04/11 00:32:24;;;;;;;0.20;0.20;;;1.10;99.90;;;;;;5060269;28;20400;-81
2022/04/11 00:34:51;;;;;;;0.20;0.20;;;1.10;99.90;;;;;;5076672;28;20055;-81
2022/04/11 00:37:18;;;;;;;0.30;0.30;;;1.00;99.90;;;;;;5076726;28;20468;-80
2022/04/11 00:39:44;;;;;;;0.20;0.20;;;1.00;99.90;;;;;;5060089;28;20058;-81
2022/04/11 00:42:14;;;;;;;0.30;0.30;;;1.60;99.90;;;;;;5076812;28;20050;-81
2022/04/11 00:44:41;;;;;;;0.20;0.20;;;1.00;99.90;;;;;;5092898;28;20044;-81
2022/04/11 00:47:08;;;;;;;0.20;0.20;;;1.10;99.90;;;;;;5076416;28;20400;-82
2022/04/11 00:49:35;;;;;;;0.20;0.20;;;0.90;99.90;;;;;;5060250;28;20051;-81
2022/04/11 00:52:03;;;;;;;0.30;0.30;;;0.90;99.90;;;;;;5056702;28;20493;-81
2022/04/11 00:54:32;;;;;;;0.20;0.20;;;0.90;99.90;;;;;;5056546;28;20043;-81
2022/04/11 00:56:59;;;;;;;0.20;0.20;;;0.90;99.90;;;;;;5089533;28;20044;-81
2022/04/11 00:59:26;;;;;;;0.30;0.30;;;0.90;99.90;;;;;;5040429;28;20400;-81
2022/04/11 01:01:53;;;;;;;0.20;0.20;;;0.80;99.90;;;;;;5056123;28;20091;-79
2022/04/11 01:04:27;;;;;;;0.30;0.30;;;1.10;99.90;;;;;;5056468;28;20032;-80
2022/04/11 01:06:57;;;;;;;0.28;0.28;;;0.80;99.90;;;;;;5042064;28;20040;-81
2022/04/11 01:09:24;;;;;;;0.20;0.20;;;0.80;99.90;;;;;;5056387;28;20447;-82
2022/04/11 01:11:51;;;;;;;0.22;0.22;;;1.70;99.90;;;;;;5072990;28;20040;-80
2022/04/11 01:14:19;;;;;;;0.20;0.20;;;1.30;99.90;;;;;;5056736;28;20040;-81
2022/04/11 01:16:50;;;;;;;0.30;0.30;;;0.90;99.90;;;;;;5072422;28;20047;-81
2022/04/11 01:19:18;;;;;;;0.25;0.25;;;1.10;99.90;;;;;;5072743;28;20580;-80
2022/04/11 01:21:46;;;;;;;0.30;0.30;;;0.60;99.90;;;;;;5072619;28;20512;-80
2022/04/11 01:24:13;;;;;;;0.20;0.20;;;0.70;99.90;;;;;;5066164;28;20064;-81
2022/04/11 01:26:40;;;;;;;0.30;0.30;;;1.00;99.90;;;;;;5039627;28;20050;-81
2022/04/11 01:29:09;;;;;;;0.30;0.30;;;0.70;99.90;;;;;;5073002;28;20501;-82
2022/04/11 01:31:35;;;;;;;0.30;0.30;;;1.10;99.90;;;;;;5089440;28;20044;-80
2022/04/11 01:34:02;;;;;;;0.22;0.22;;;0.60;99.90;;;;;;5056105;28;20057;-82
2022/04/11 01:36:29;;;;;;;0.30;0.30;;;0.60;99.90;;;;;;5072811;28;20040;-81
2022/04/11 01:38:56;;;;;;;0.30;0.30;;;0.60;99.90;;;;;;5072326;28;20051;-80
2022/04/11 01:41:22;;;;;;;0.30;0.30;;;0.60;99.90;;;;;;5056398;28;20037;-80
2022/04/11 01:43:49;;;;;;;0.20;0.20;;;1.30;99.90;;;;;;5056152;28;20135;-80
2022/04/11 01:46:16;;;;;;;0.30;0.30;;;0.60;99.90;;;;;;5056025;28;20051;-83
2022/04/11 01:48:42;;;;;;;0.30;0.30;;;1.00;99.90;;;;;;5072232;28;20071;-83
2022/04/11 01:51:11;;;;;;;0.30;0.30;;;0.60;99.90;;;;;;5056145;28;20185;-83
2022/04/11 01:53:38;;;;;;;0.28;0.28;;;0.50;99.90;;;;;;5072559;28;20045;-83
2022/04/11 01:56:05;;;;;;;0.20;0.20;;;0.50;99.90;;;;;;5086569;28;20043;-84
2022/04/11 01:58:32;;;;;;;0.30;0.30;;;0.50;99.90;;;;;;5094317;28;20486;-84
2022/04/11 02:00:59;;;;;;;0.20;0.20;;;1.30;99.90;;;;;;5079859;28;20059;-82
2022/04/11 02:03:26;;;;;;;0.20;0.20;;;0.50;99.90;;;;;;5080136;28;20028;-82
2022/04/11 02:05:53;;;;;;;0.30;0.30;;;0.50;99.90;;;;;;5095821;28;20043;-82
2022/04/11 02:08:20;;;;;;;0.30;0.30;;;0.50;99.90;;;;;;5080136;28;20050;-83
2022/04/11 02:10:47;;;;;;;0.30;0.30;;;0.50;99.90;;;;;;5079394;28;20424;-84
2022/04/11 02:13:13;;;;;;;0.30;0.30;;;0.50;99.90;;;;;;5063005;28;20035;-83
2022/04/11 02:15:40;;;;;;;0.30;0.30;;;0.50;99.90;;;;;;5071524;28;20051;-83
2022/04/11 02:18:07;;;;;;;0.30;0.30;;;1.30;99.90;;;;;;5062521;28;20043;-83
2022/04/11 02:20:34;;;;;;;0.30;0.30;;;0.40;99.90;;;;;;5079764;28;20118;-82
2022/04/11 02:23:01;;;;;;;0.30;0.30;;;0.80;99.90;;;;;;5095634;28;20071;-82
2022/04/11 02:25:30;;;;;;;0.22;0.22;;;0.40;99.90;;;;;;5096195;28;20082;-82
2022/04/11 02:27:58;;;;;;;0.25;0.25;;;0.40;99.90;;;;;;5095909;28;20146;-82
2022/04/11 02:30:26;;;;;;;0.30;0.30;;;0.40;99.90;;;;;;5095678;28;20075;-82
2022/04/11 02:32:55;;;;;;;0.30;0.30;;;1.00;99.90;;;;;;5112087;28;20042;-84
2022/04/11 02:35:22;;;;;;;0.28;0.28;;;0.50;99.90;;;;;;5112054;28;20134;-82
2022/04/11 02:37:49;;;;;;;0.22;0.22;;;0.40;99.90;;;;;;5096858;28;20040;-83
2022/04/11 02:40:16;;;;;;;0.30;0.30;;;0.60;99.90;;;;;;5059141;28;20620;-83
2022/04/11 02:42:44;;;;;;;0.30;0.30;;;0.30;99.90;;;;;;5058928;28;20117;-81
2022/04/11 02:45:12;;;;;;;0.20;0.20;;;0.30;99.90;;;;;;5058773;28;20421;-82
2022/04/11 02:47:39;;;;;;;0.20;0.20;;;0.30;99.90;;;;;;5058929;28;20489;-82
2022/04/11 02:50:06;;;;;;;0.20;0.20;;;1.00;99.90;;;;;;5058993;28;20035;-83
2022/04/11 02:52:33;;;;;;;0.30;0.30;;;0.30;99.90;;;;;;5075424;28;20048;-83
2022/04/11 02:55:00;;;;;;;0.30;0.30;;;0.30;99.90;;;;;;5074843;28;20481;-82
2022/04/11 02:57:29;;;;;;;0.30;0.30;;;0.90;99.90;;;;;;5075071;28;20041;-82
2022/04/11 02:59:56;;;;;;;0.30;0.30;;;0.30;99.90;;;;;;5058536;28;20123;-82
2022/04/11 03:02:23;;;;;;;0.20;0.20;;;0.30;99.90;;;;;;5058861;28;20044;-82
2022/04/11 03:04:50;;;;;;;0.20;0.20;;;0.30;99.90;;;;;;5074920;28;20033;-83
2022/04/11 03:07:17;;;;;;;0.30;0.30;;;0.40;99.90;;;;;;5074975;28;20481;-82
2022/04/11 03:09:43;;;;;;;0.38;0.38;;;0.30;99.90;;;;;;5057415;28;20044;-83
2022/04/11 03:12:10;;;;;;;0.30;0.30;;;0.30;99.90;;;;;;5067124;28;20046;-82
2022/04/11 03:14:37;;;;;;;0.30;0.30;;;0.30;99.90;;;;;;5094970;28;20036;-82
2022/04/11 03:17:04;;;;;;;0.30;0.30;;;0.50;99.90;;;;;;5077526;28;20507;-84
2022/04/11 03:19:31;;;;;;;0.40;0.40;;;0.20;99.90;;;;;;5078186;28;20040;-83
2022/04/11 03:21:58;;;;;;;0.22;0.22;;;0.20;99.90;;;;;;5061696;28;20084;-83
2022/04/11 03:24:25;;;;;;;0.30;0.30;;;1.20;99.90;;;;;;5078214;28;20047;-82
2022/04/11 03:26:52;;;;;;;0.30;0.30;;;0.20;99.90;;;;;;5061381;28;20492;-83
2022/04/11 03:29:18;;;;;;;0.20;0.20;;;0.20;99.90;;;;;;5094627;28;20051;-83
2022/04/11 03:31:46;;;;;;;0.30;0.30;;;0.20;99.90;;;;;;5077972;28;20047;-83
2022/04/11 03:34:13;;;;;;;0.30;0.30;;;0.90;99.90;;;;;;5062072;28;20086;-82
2022/04/11 03:36:39;;;;;;;0.20;0.20;;;0.20;99.90;;;;;;5061405;28;20054;-82
2022/04/11 03:39:06;;;;;;;0.20;0.20;;;0.50;99.90;;;;;;5094024;28;20101;-81
2022/04/11 03:41:33;;;;;;;0.30;0.30;;;0.20;99.90;;;;;;5077901;28;20036;-81
2022/04/11 03:44:00;;;;;;;0.30;0.30;;;0.20;99.90;;;;;;5060966;28;20036;-82
2022/04/11 03:46:28;;;;;;;0.30;0.30;;;0.20;99.90;;;;;;5077762;28;20040;-83
2022/04/11 03:48:55;;;;;;;0.30;0.30;;;0.80;99.90;;;;;;5077686;28;20048;-82
2022/04/11 03:51:22;;;;;;;0.30;0.30;;;0.30;99.90;;;;;;5094843;28;20385;-82
2022/04/11 03:53:48;;;;;;;0.30;0.30;;;0.70;99.90;;;;;;5077395;28;20147;-82
2022/04/11 03:56:17;;;;;;;0.30;0.30;;;0.40;99.90;;;;;;5093978;28;20131;-83
2022/04/11 03:58:44;;;;;;;0.30;0.30;;;1.00;99.90;;;;;;5077829;28;20124;-84
2022/04/11 04:01:11;;;;;;;0.30;0.30;;;0.50;99.90;;;;;;5093930;28;20043;-82
2022/04/11 04:03:37;;;;;;;0.30;0.30;;;0.50;99.90;;;;;;5077448;28;20039;-82
2022/04/11 04:06:04;;;;;;;0.32;0.32;;;0.50;99.90;;;;;;5077174;28;20042;-84
2022/04/11 04:08:31;;;;;;;0.30;0.30;;;0.60;99.90;;;;;;5077372;28;20043;-83
2022/04/11 04:10:58;;;;;;;0.30;0.30;;;1.10;99.90;;;;;;5060338;28;20044;-84
2022/04/11 04:13:25;;;;;;;0.30;0.30;;;0.60;99.90;;;;;;5093528;28;20035;-82
2022/04/11 04:15:52;;;;;;;0.30;0.30;;;1.10;99.90;;;;;;5077058;28;20093;-82
2022/04/11 04:18:19;;;;;;;0.30;0.30;;;0.70;99.90;;;;;;5077313;28;20465;-83
2022/04/11 04:20:45;;;;;;;0.30;0.30;;;1.70;99.90;;;;;;5056814;28;20033;-83
2022/04/11 04:23:12;;;;;;;0.30;0.30;;;0.80;99.90;;;;;;5039687;28;20043;-82
2022/04/11 04:25:39;;;;;;;0.30;0.30;;;0.90;99.90;;;;;;5057188;28;20428;-82
2022/04/11 04:28:06;;;;;;;0.30;0.30;;;0.80;99.90;;;;;;5056653;28;20036;-84
2022/04/11 04:30:33;;;;;;;0.20;0.20;;;0.80;99.90;;;;;;5056854;28;20115;-84
2022/04/11 04:33:00;;;;;;;0.30;0.30;;;0.90;99.90;;;;;;5056309;28;20129;-83
2022/04/11 04:35:27;;;;;;;0.20;0.20;;;0.90;99.90;;;;;;5040352;28;20127;-82
2022/04/11 04:37:54;;;;;;;0.30;0.30;;;1.00;99.90;;;;;;5056292;28;20036;-82
2022/04/11 04:40:21;;;;;;;0.30;0.30;;;1.00;99.90;;;;;;5040073;28;20042;-83
2022/04/11 04:42:48;;;;;;;0.30;0.30;;;1.00;99.90;;;;;;5040199;28;20555;-82
2022/04/11 04:45:15;;;;;;;0.22;0.22;;;1.00;99.90;;;;;;5039448;28;20036;-84
2022/04/11 04:47:41;;;;;;;0.20;0.20;;;1.10;99.90;;;;;;5040406;28;20033;-82
2022/04/11 04:50:09;;;;;;;0.25;0.25;;;1.10;99.90;;;;;;5039867;28;20633;-83
2022/04/11 04:52:38;;;;;;;0.30;0.30;;;1.10;99.90;;;;;;5056357;28;20093;-82
2022/04/11 04:55:05;;;;;;;0.30;0.30;;;1.20;99.90;;;;;;5089372;28;20092;-83
2022/04/11 04:57:32;;;;;;;0.30;0.30;;;1.20;99.90;;;;;;5089384;28;20037;-83
2022/04/11 04:59:58;;;;;;;0.10;0.10;;;1.30;99.90;;;;;;5039854;28;20230;-84
2022/04/11 05:02:25;;;;;;;0.20;0.20;;;1.30;99.90;;;;;;5040365;28;20033;-83
2022/04/11 05:04:52;;;;;;;0.30;0.30;;;1.30;99.90;;;;;;5056295;28;20494;-83
2022/04/11 05:07:18;;;;;;;0.20;0.20;;;1.40;99.90;;;;;;5062527;28;20048;-83
2022/04/11 05:09:45;;;;;;;0.20;0.20;;;1.40;99.90;;;;;;5072814;28;20541;-82
2022/04/11 05:12:12;;;;;;;0.20;0.20;;;1.50;99.90;;;;;;5089428;28;20485;-82
2022/04/11 05:14:38;;;;;;;0.20;0.20;;;1.50;99.90;;;;;;5040095;28;20639;-84
2022/04/11 05:17:05;;;;;;;0.22;0.22;;;1.70;99.90;;;;;;5072870;28;20494;-82
2022/04/11 05:19:32;;;;;;;0.20;0.20;;;1.60;99.90;;;;;;5042267;28;20123;-81
2022/04/11 05:22:01;;;;;;;0.30;0.30;;;1.60;99.90;;;;;;5076519;28;20452;-82
2022/04/11 05:24:28;;;;;;;0.20;0.20;;;1.70;99.90;;;;;;5067400;28;20033;-82
2022/04/11 05:26:55;;;;;;;0.20;0.20;;;1.80;99.90;;;;;;5073148;28;20128;-82
2022/04/11 05:29:21;;;;;;;0.30;0.30;;;1.80;99.90;;;;;;5073045;28;20106;-82
2022/04/11 05:31:48;;;;;;;0.30;0.30;;;1.90;99.90;;;;;;5056315;28;20412;-82
2022/04/11 05:34:15;;;;;;;0.20;0.20;;;3.00;99.90;;;;;;5075022;28;20052;-83
2022/04/11 05:36:41;;;;;;;0.30;0.30;;;2.20;99.90;;;;;;5076819;28;20044;-82
2022/04/11 05:39:08;;;;;;;0.20;0.20;;;2.50;99.90;;;;;;5076293;28;20129;-83
2022/04/11 05:41:35;;;;;;;0.20;0.20;;;2.10;99.90;;;;;;5076620;28;20037;-82
2022/04/11 05:44:02;;;;;;;0.20;0.20;;;2.10;99.90;;;;;;5060188;28;20044;-82
2022/04/11 05:46:28;;;;;;;0.30;0.30;;;2.20;99.90;;;;;;5059782;28;20889;-84
2022/04/11 05:48:58;;;;;;;0.20;0.20;;;2.20;99.90;;;;;;5061075;28;20044;-84
2022/04/11 05:51:26;;;;;;;0.20;0.20;;;2.40;99.90;;;;;;5076090;28;20807;-82
2022/04/11 05:53:52;;;;;;;0.20;0.20;;;2.30;99.90;;;;;;5076404;28;20052;-84
2022/04/11 05:56:19;;;;;;;0.20;0.20;;;2.40;99.90;;;;;;5059674;28;20044;-82
2022/04/11 05:58:46;;;;;;;0.20;0.20;;;2.90;99.90;;;;;;5059996;28;20059;-82
2022/04/11 06:01:12;;;;;;;0.20;0.20;;;2.90;99.90;;;;;;5075882;28;20076;-83
2022/04/11 06:03:39;;;;;;;0.20;0.20;;;3.20;99.90;;;;;;5059266;28;20097;-84
2022/04/11 06:06:06;;;;;;;0.20;0.20;;;2.60;99.90;;;;;;5059236;28;20036;-82
2022/04/11 06:08:33;;;;;;;0.20;0.20;;;2.80;99.90;;;;;;5076102;28;20466;-83
2022/04/11 06:10:59;;;;;;;0.20;0.20;;;2.70;99.90;;;;;;5076386;28;20063;-85
2022/04/11 06:13:26;;;;;;;0.20;0.20;;;3.30;99.90;;;;;;5061434;28;20521;-82
2022/04/11 06:15:55;;;;;;;0.20;0.20;;;3.70;99.90;;;;;;5057202;28;20381;-84
2022/04/11 06:18:22;;;;;;;0.20;0.20;;;3.00;99.90;;;;;;5058657;28;20400;-83
2022/04/11 06:20:49;;;;;;;0.20;0.20;;;3.00;99.90;;;;;;5043097;28;20048;-81
2022/04/11 06:23:16;;;;;;;0.10;0.10;;;3.00;99.90;;;;;;5075358;28;20040;-84
2022/04/11 06:25:43;;;;;;;0.20;0.20;;;3.10;99.90;;;;;;5080534;28;20032;-84
2022/04/11 06:28:10;;;;;;;0.20;0.20;;;3.20;99.90;;;;;;5091928;28;20119;-82
2022/04/11 06:30:36;;;;;;;0.20;0.20;;;3.20;99.90;;;;;;5062210;28;20449;-81
2022/04/11 06:33:03;;;;;;;0.10;0.10;;;3.30;99.90;;;;;;5097654;28;20405;-81
2022/04/11 06:35:30;;;;;;;0.20;0.20;;;3.30;99.90;;;;;;5067011;28;20120;-81
2022/04/11 06:37:56;;;;;;;0.10;0.10;;;3.40;99.90;;;;;;5042933;28;20047;-81
2022/04/11 06:40:23;;;;;;;0.20;0.20;;;3.40;99.90;;;;;;5048031;28;20028;-84
2022/04/11 06:42:50;;;;;;;0.20;0.20;;;3.50;99.90;;;;;;5079486;28;20400;-83
2022/04/11 06:45:17;;;;;;;0.10;0.10;;;3.50;99.90;;;;;;5094509;28;20039;-82
2022/04/11 06:47:46;;;;;;;0.20;0.20;;;3.50;99.90;;;;;;5075230;28;20033;-82
2022/04/11 06:50:12;;;;;;;0.15;0.15;;;3.70;99.90;;;;;;5047993;28;20899;-84
2022/04/11 06:52:39;;;;;;;0.20;0.20;;;3.70;99.90;;;;;;5059340;28;20041;-84
2022/04/11 06:55:06;;;;;;;0.10;0.10;;;3.70;99.90;;;;;;5058899;28;20036;-83
2022/04/11 06:57:33;;;;;;;0.20;0.20;;;3.80;99.90;;;;;;5041928;28;20497;-83
2022/04/11 07:00:01;;;;;;;0.20;0.20;;;3.90;99.90;;;;;;5058184;28;20067;-81
2022/04/11 07:02:28;;;;;;;0.20;0.20;;;3.90;99.90;;;;;;5079871;28;20029;-83
2022/04/11 07:04:54;;;;;;;0.20;0.20;;;4.00;99.90;;;;;;5094879;28;20036;-81
2022/04/11 07:07:21;;;;;;;0.20;0.20;;;4.10;99.90;;;;;;5058063;28;20044;-79
2022/04/11 07:09:48;;;;;;;0.20;0.20;;;4.20;99.90;;;;;;5059932;28;20044;-79
2022/04/11 07:12:14;;;;;;;0.20;0.20;;;4.30;99.90;;;;;;5055754;28;20522;-80
2022/04/11 07:14:41;;;;;;;0.10;0.10;;;4.40;99.90;;;;;;5061272;28;20094;-82
2022/04/11 07:17:08;;;;;;;0.10;0.10;;;4.40;99.90;;;;;;5058225;28;20543;-83
2022/04/11 07:19:34;;;;;;;0.10;0.10;;;4.40;99.90;;;;;;5057767;28;20068;-80
2022/04/11 07:22:01;;;;;;;0.20;0.20;;;4.50;99.90;;;;;;5058281;28;20029;-81
2022/04/11 07:24:28;;;;;;;0.10;0.10;;;4.60;99.90;;;;;;5046900;28;20515;-81
2022/04/11 07:26:55;;;;;;;0.20;0.20;;;4.60;99.90;;;;;;5078153;28;20044;-80
2022/04/11 07:29:21;;;;;;;0.10;0.10;;;4.90;99.90;;;;;;5076595;28;20100;-77
2022/04/11 07:31:48;;;;;;;0.20;0.20;;;4.80;99.90;;;;;;5090155;28;20473;-83
2022/04/11 07:34:15;;;;;;;0.10;0.10;;;4.90;99.90;;;;;;5073935;28;20049;-82
2022/04/11 07:36:42;;;;;;;0.10;0.10;;;4.90;99.90;;;;;;5057691;28;20428;-79
2022/04/11 07:39:08;;;;;;;0.10;0.10;;;4.90;99.90;;;;;;5074170;28;20037;-87
2022/04/11 07:41:35;;;;;;;0.10;0.10;;;5.00;99.90;;;;;;5075562;28;20035;-86
2022/04/11 07:44:03;;;;;;;0.10;0.10;;;5.10;99.90;;;;;;5070572;28;20557;-79
2022/04/11 07:46:30;;;;;;;0.17;0.17;;;5.20;99.90;;;;;;5070391;28;20826;-85
2022/04/11 07:48:56;;;;;;;0.10;0.10;;;5.30;99.90;;;;;;5060886;28;20097;-79
2022/04/11 07:51:23;;;;;;;0.10;0.10;;;5.40;99.90;;;;;;5057282;28;20040;-83
2022/04/11 07:53:50;;;;;;;0.10;0.10;;;5.50;99.90;;;;;;5041111;28;20048;-83
2022/04/11 07:56:16;;;;;;;0.10;0.10;;;5.60;99.90;;;;;;5080606;28;20044;-79
2022/04/11 07:58:43;;;;;;;0.10;0.10;;;5.70;99.90;;;;;;5063311;28;20552;-79
2022/04/11 08:01:16;;;;;;;0.10;0.10;;;5.90;99.90;;;;;;5077765;28;20032;-79
2022/04/11 08:03:47;;;;;;;0.20;0.20;;;6.10;99.90;;;;;;5062435;28;20055;-84
2022/04/11 08:06:14;;;;;;;0.13;0.13;;;6.00;99.90;;;;;;5093498;28;20043;-79
2022/04/11 08:08:46;;;;;;;0.10;0.10;;;6.20;99.90;;;;;;5077308;28;20047;-80
2022/04/11 08:11:17;;;;;;;0.10;0.10;;;6.30;99.90;;;;;;5077653;28;20089;-84
2022/04/11 08:13:45;;;;;;;0.10;0.10;;;6.40;99.90;;;;;;5077112;28;20109;-84
2022/04/11 08:16:12;;;;;;;0.10;0.10;;;6.50;99.90;;;;;;5093464;28;20062;-84
2022/04/11 08:18:39;;;;;;;0.10;0.10;;;6.60;99.90;;;;;;5072501;28;20064;-80
2022/04/11 08:21:05;;;;;;;0.20;0.20;;;6.60;99.90;;;;;;5061774;28;20078;-79
2022/04/11 08:23:32;;;;;;;0.10;0.10;;;6.70;99.90;;;;;;5093126;28;20036;-84
2022/04/11 08:25:59;;;;;;;0.10;0.10;;;6.80;99.90;;;;;;5060064;28;20557;-79
2022/04/11 08:28:26;;;;;;;0.10;0.10;;;6.90;99.90;;;;;;5063696;28;20401;-80
2022/04/11 08:30:53;;;;;;;0.10;0.10;;;7.20;99.90;;;;;;5063639;28;20607;-84
2022/04/11 08:33:19;;;;;;;0.10;0.10;;;7.50;99.90;;;;;;5092642;28;20132;-83
2022/04/11 08:35:46;;;;;;;0.10;0.10;;;7.40;99.90;;;;;;5093082;28;20484;-83
2022/04/11 08:38:13;;;;;;;0.10;0.10;;;7.60;99.90;;;;;;5092992;28;20047;-83
2022/04/11 08:40:40;;;;;;;0.10;0.10;;;7.70;99.90;;;;;;5058868;28;20040;-79
2022/04/11 08:43:08;;;;;;;0.10;0.10;;;7.80;99.90;;;;;;5109364;28;20036;-79
2022/04/11 08:45:35;;;;;;;0.10;0.10;;;8.00;99.90;;;;;;5092403;28;20868;-83
2022/04/11 08:48:02;;;;;;;0.10;0.10;;;8.10;99.90;;;;;;5076097;28;20040;-83
2022/04/11 08:50:28;;;;;;;0.10;0.10;;;8.30;99.90;;;;;;5055949;28;20516;-80
2022/04/11 08:52:57;;;;;;;0.10;0.10;;;8.40;99.90;;;;;;5040798;28;20489;-83
2022/04/11 08:55:23;;;;;;;0.10;0.10;;;8.60;99.90;;;;;;5055827;28;20043;-83
2022/04/11 08:57:50;;;;;;;0.10;0.10;;;8.70;99.90;;;;;;5039689;28;20520;-79
2022/04/11 09:00:22;;;;;;;0.10;0.10;;;8.80;99.90;;;;;;5042528;28;20033;-79
2022/04/11 09:02:49;;;;;;;0.10;0.10;;;8.90;99.90;;;;;;5089466;28;20037;-79
2022/04/11 09:05:21;;;;;;;0.10;0.10;;;8.90;99.90;;;;;;5056122;28;20459;-84
2022/04/11 09:07:50;;;;;;;0.10;0.10;;;9.00;99.90;;;;;;5072439;28;20037;-79
2022/04/11 09:10:19;;;;;;;0.00;0.00;;;9.10;99.90;;;;;;5072221;28;20033;-83
2022/04/11 09:12:47;;;;;;;0.05;0.05;;;9.10;99.90;;;;;;5056042;28;20037;-83
2022/04/11 09:15:14;;;;;;;0.10;0.10;;;9.30;99.90;;;;;;5057901;28;20040;-83
2022/04/11 09:17:43;;;;;;;0.00;0.00;;;9.40;99.90;;;;;;5092319;28;20043;-79
2022/04/11 09:20:18;;;;;;;0.05;0.05;;;9.50;99.90;;;;;;5109076;28;20467;-79
2022/04/11 09:22:46;;;;;;;0.10;0.10;;;9.70;99.90;;;;;;5091466;28;20055;-83
2022/04/11 09:25:17;;;;;;;0.10;0.10;;;9.80;99.90;;;;;;5092049;28;20094;-79
2022/04/11 09:27:46;;;;;;;0.10;0.10;;;9.80;99.90;;;;;;5076492;28;20101;-83
2022/04/11 09:30:25;;;;;;;0.00;0.00;;;9.90;99.90;;;;;;5090077;28;20044;-79
2022/04/11 09:32:58;;;;;;;0.10;0.10;;;9.90;99.90;;;;;;5091545;28;20036;-79
2022/04/11 09:35:26;;;;;;;0.10;0.10;;;10.10;99.90;;;;;;5108853;28;20059;-83
2022/04/11 09:38:08;;;;;;;0.00;0.00;;;10.30;99.90;;;;;;5092131;28;20032;-79
2022/04/11 09:40:37;;;;;;;0.00;0.00;;;10.30;99.90;;;;;;5108225;28;20081;-83
2022/04/11 09:43:03;;;;;;;0.05;0.05;;;10.40;99.90;;;;;;5091259;28;20043;-79
2022/04/11 09:45:30;;;;;;;0.05;0.05;;;10.50;99.90;;;;;;5071292;28;20108;-83
2022/04/11 09:48:04;;;;;;;0.10;0.10;;;10.40;99.90;;;;;;5039227;28;20049;-83
2022/04/11 09:50:32;;;;;;;0.10;0.10;;;10.60;99.90;;;;;;5078608;28;20044;-83
2022/04/11 09:53:07;;;;;;;0.10;0.10;;;10.70;99.90;;;;;;5084549;28;20127;-79
2022/04/11 09:55:36;;;;;;;0.00;0.00;;;10.80;99.90;;;;;;5108279;28;20032;-83
2022/04/11 09:58:04;;;;;;;0.00;0.00;;;10.70;99.90;;;;;;5092278;28;20036;-83
2022/04/11 10:00:34;;;;;;;0.00;0.00;;;10.80;99.90;;;;;;5091602;28;20043;-80
2022/04/11 10:03:02;;;;;;;0.00;0.00;;;10.90;99.90;;;;;;5092019;28;20090;-79
2022/04/11 10:05:30;;;;;;;0.00;0.00;;;10.90;99.90;;;;;;5075286;28;20054;-80
2022/04/11 10:07:57;;;;;;;0.10;0.10;;;11.00;99.90;;;;;;5092239;28;20044;-79
2022/04/11 10:10:24;;;;;;;0.10;0.10;;;10.90;99.90;;;;;;5072681;28;20040;-82
2022/04/11 10:12:53;;;;;;;0.00;0.00;;;11.10;99.90;;;;;;5064908;28;20180;-79
2022/04/11 10:15:21;;;;;;;0.10;0.10;;;11.10;99.90;;;;;;5108518;28;20135;-83
2022/04/11 10:17:50;;;;;;;0.00;0.00;;;11.20;99.90;;;;;;5124869;28;20051;-79
2022/04/11 10:20:24;;;;;;;0.00;0.00;;;11.40;99.90;;;;;;5104333;28;20024;-84
2022/04/11 10:23:08;;;;;;;0.00;0.00;;;11.60;99.90;;;;;;5100550;28;20515;-79
2022/04/11 10:25:44;;;;;;;0.00;0.00;;;11.70;98.90;;;;;;5095094;28;20052;-82
2022/04/11 10:28:19;;;;;;;0.00;0.00;;;11.70;99.20;;;;;;5108693;28;20039;-79
2022/04/11 10:31:10;;;;;;;0.00;0.00;;;11.60;97.80;;;;;;5065347;28;20054;-79
2022/04/11 10:33:52;;;;;;;0.00;0.00;;;11.70;96.70;;;;;;5085095;28;20055;-84
2022/04/11 10:36:36;;;;;;;0.00;0.00;;;11.70;93.10;;;;;;5088115;28;20053;-79
2022/04/11 10:39:15;;;;;;;0.00;0.00;;;11.90;95.80;;;;;;5088195;28;20052;-84
2022/04/11 10:41:57;;;;;;;0.00;0.00;;;11.80;93.70;;;;;;5084318;28;20099;-84
2022/04/11 10:44:36;;;;;;;0.10;0.10;;;11.80;92.00;;;;;;5051484;28;20502;-83
2022/04/11 10:47:09;;;;;;;0.00;0.00;;;11.70;94.20;;;;;;5067507;28;20041;-83
2022/04/11 10:49:48;;;;;;;0.20;0.15;;;11.90;94.40;;;;;;5066360;28;20041;-79
2022/04/11 10:52:33;;;;;;;0.00;0.00;;;11.90;95.90;;;;;;5088205;28;20056;-79
2022/04/11 10:55:17;;;;;;;0.00;0.00;;;12.00;97.40;;;;;;5043619;28;20068;-84
2022/04/11 10:57:45;;;;;;;0.00;0.00;;;12.00;95.60;;;;;;5050794;28;20405;-84
2022/04/11 11:00:20;;;;;;;0.00;0.00;;;12.00;91.40;;;;;;5077534;28;20087;-84
2022/04/11 11:02:50;;;;;;;0.10;0.10;;;12.00;92.40;;;;;;5078730;28;20114;-79
2022/04/11 11:05:43;;;;;;;0.00;0.00;;;12.20;95.20;;;;;;5056254;28;20424;-79
2022/04/11 11:08:10;;;;;;;0.00;0.00;;;12.30;94.30;;;;;;5065346;28;20512;-79
2022/04/11 11:10:46;;;;;;;0.00;0.00;;;12.30;89.50;;;;;;5075775;28;20411;-79
2022/04/11 11:13:34;;;;;;;0.00;0.00;;;12.40;92.40;;;;;;5087839;28;20041;-79
2022/04/11 11:16:07;;;;;;;0.00;0.00;;;12.40;88.80;;;;;;5067406;28;20053;-79
2022/04/11 11:18:54;;;;;;;0.00;0.00;;;12.40;92.00;;;;;;5072878;28;20118;-79
2022/04/11 11:21:37;;;;;;;0.00;0.00;;;12.40;90.10;;;;;;5070235;28;20049;-80
2022/04/11 11:24:04;;;;;;;0.00;0.00;;;12.50;85.90;;;;;;5080453;28;20053;-84
2022/04/11 11:26:45;;;;;;;0.00;0.00;;;12.50;89.10;;;;;;5066959;28;20045;-81
2022/04/11 11:29:28;;;;;;;0.00;0.00;;;12.50;84.80;;;;;;5050753;28;20805;-80
2022/04/11 11:31:57;;;;;;;0.00;0.00;;;12.50;82.80;;;;;;5062345;28;20843;-86
2022/04/11 11:34:27;;;;;;;0.00;0.00;;;12.50;83.90;;;;;;5063070;28;20499;-82
2022/04/11 11:37:04;;;;;;;0.00;0.00;;;12.50;82.00;;;;;;5070500;28;20501;-78
2022/04/11 11:39:37;;;;;;;0.00;0.00;;;12.50;81.90;;;;;;5072641;28;20048;-82
2022/04/11 11:42:06;;;;;;;0.00;0.00;;;12.50;78.00;;;;;;5070970;28;20183;-78
2022/04/11 11:44:40;;;;;;;0.00;0.00;;;13.00;81.60;;;;;;5092839;28;20412;-78
2022/04/11 11:47:07;;;;;;;0.00;0.00;;;12.70;84.40;;;;;;5091119;28;20493;-81
2022/04/11 11:49:42;;;;;;;0.00;0.00;;;12.70;78.50;;;;;;5087700;28;20171;-84
2022/04/11 11:52:17;;;;;;;0.00;0.00;;;12.70;77.50;;;;;;5091166;28;20117;-80
2022/04/11 11:54:46;;;;;;;0.00;0.00;;;12.60;77.40;;;;;;5103258;28;20048;-80
2022/04/11 11:57:29;;;;;;;0.00;0.00;;;12.70;81.40;;;;;;5090167;28;20049;-84
2022/04/11 12:00:03;;;;;;;0.00;0.00;;;12.80;81.80;;;;;;5090185;28;20036;-80
2022/04/11 12:05:21;;;;;;;0.00;0.00;;;12.80;88.70;;;;;;5097944;28;20119;-84
2022/04/11 12:08:14;;;;;;;0.10;0.10;;;13.00;91.50;;;;;;5073461;28;20489;-80
2022/04/11 12:10:46;;;;;;;0.00;0.00;;;13.00;81.80;;;;;;5089884;28;20101;-82
2022/04/11 12:13:33;;;;;;;0.00;0.00;;;13.10;84.10;;;;;;5086337;28;20064;-84
2022/04/11 12:16:17;;;;;;;0.00;0.00;;;13.10;81.80;;;;;;5086574;28;20044;-80
2022/04/11 12:18:49;;;;;;;0.00;0.00;;;13.10;82.40;;;;;;5097200;28;20044;-83
2022/04/11 12:21:17;;;;;;;0.00;0.00;;;13.10;83.70;;;;;;5069718;28;20041;-81
2022/04/11 12:23:46;;;;;;;0.00;0.00;;;13.10;85.30;;;;;;5069733;28;20076;-81
2022/04/11 12:26:29;;;;;;;0.00;0.00;;;13.10;78.10;;;;;;5077304;28;20041;-81
2022/04/11 12:28:57;;;;;;;0.00;0.00;;;13.10;82.50;;;;;;5070971;28;20048;-84
2022/04/11 12:31:27;;;;;;;0.00;0.00;;;13.00;78.00;;;;;;5069257;28;20044;-80
2022/04/11 12:33:54;;;;;;;0.10;0.10;;;13.00;81.30;;;;;;5073027;28;20053;-83
2022/04/11 12:36:29;;;;;;;0.00;0.00;;;12.90;82.30;;;;;;5070462;28;20042;-81
2022/04/11 12:38:58;;;;;;;0.00;0.00;;;12.90;82.70;;;;;;5068844;28;20048;-84
2022/04/11 12:41:36;;;;;;;0.00;0.00;;;12.80;84.70;;;;;;5086209;28;20033;-85
2022/04/11 12:44:46;;;;;;;0.00;0.00;;;12.70;83.60;;;;;;5085506;28;20094;-81
2022/04/11 12:47:16;;;;;;;0.03;0.03;;;12.70;81.20;;;;;;5068113;28;20052;-85
2022/04/11 12:49:50;;;;;;;0.00;0.00;;;12.70;77.10;;;;;;5049502;28;20045;-80
2022/04/11 12:52:22;;;;;;;0.00;0.00;;;12.70;78.20;;;;;;5049902;28;20045;-80
2022/04/11 12:55:04;;;;;;;0.05;0.05;;;12.70;82.00;;;;;;5069381;28;20040;-84
2022/04/11 12:57:33;;;;;;;0.00;0.00;;;12.70;80.60;;;;;;5072904;28;20040;-80
2022/04/11 13:00:36;;;;;;;0.00;0.00;;;12.90;83.90;;;;;;5085862;28;20079;-84
2022/04/11 13:03:03;;;;;;;0.05;0.05;;;12.90;82.80;;;;;;5055674;28;20060;-80
2022/04/11 13:05:32;;;;;;;0.08;0.08;;;13.00;83.00;;;;;;5065874;28;20052;-84
2022/04/11 13:08:03;;;;;;;0.00;0.00;;;13.00;80.70;;;;;;5065317;28;20041;-84